Time;durP1;ratioP1;P1;durP2;ratioP2;P2;SDS_P1;SDS_P2;PMS_P1;PMS_P2;Temp;Humidity;BMP_temperature;BMP_pressure;BME280_temperature;BME280_humidity;BME280_pressure;Samples;Min_cycle;Max_cycle;Signal;HPM_P1;HPM_P2
2022/04/06 03:30:39;;;;;;;1999.90;999.90;;;10.90;59.90;;;;;;5057931;27;20446;-89
2022/04/06 03:33:06;;;;;;;1999.90;999.90;;;10.80;61.00;;;;;;5026157;28;21139;-85
2022/04/06 03:35:33;;;;;;;1999.90;999.90;;;11.00;61.70;;;;;;5025932;28;20518;-85
2022/04/06 03:37:59;;;;;;;1999.90;999.90;;;11.20;62.10;;;;;;5026358;28;20030;-86
2022/04/06 03:40:25;;;;;;;1999.90;999.90;;;11.40;62.30;;;;;;5010896;28;20037;-85
2022/04/06 03:42:51;;;;;;;1999.90;999.90;;;11.50;62.40;;;;;;5026643;28;20029;-89
2022/04/06 03:45:17;;;;;;;1999.90;999.90;;;11.70;62.50;;;;;;5026004;28;20038;-88
2022/04/06 03:47:44;;;;;;;1999.90;999.90;;;11.80;62.60;;;;;;5027126;28;20038;-88
2022/04/06 03:50:10;;;;;;;1999.90;999.90;;;11.90;62.70;;;;;;5010487;28;20522;-86
2022/04/06 03:52:36;;;;;;;1999.90;999.90;;;12.00;62.80;;;;;;5008514;28;20428;-88
2022/04/06 03:55:03;;;;;;;1999.90;999.90;;;12.10;62.90;;;;;;5011229;28;20049;-88
2022/04/06 03:57:30;;;;;;;1999.90;999.90;;;12.10;62.90;;;;;;5009620;28;20034;-86
2022/04/06 03:59:56;;;;;;;1999.90;999.90;;;12.20;63.10;;;;;;5028516;28;20049;-87
2022/04/06 04:02:22;;;;;;;1999.90;999.90;;;12.20;63.20;;;;;;5026442;28;20061;-85
2022/04/06 04:04:48;;;;;;;1999.90;999.90;;;12.20;63.20;;;;;;4996883;28;20057;-88
2022/04/06 04:07:21;;;;;;;1999.90;999.90;;;12.30;63.30;;;;;;5011439;28;20046;-86
2022/04/06 04:09:48;;;;;;;1999.90;999.90;;;12.30;63.50;;;;;;5026932;28;20506;-90
2022/04/06 04:12:14;;;;;;;1999.90;999.90;;;12.30;63.50;;;;;;5009053;28;20048;-86
2022/04/06 04:14:40;;;;;;;1999.90;999.90;;;12.40;64.50;;;;;;5028138;28;20045;-88
2022/04/06 04:17:06;;;;;;;1999.90;999.90;;;12.40;63.80;;;;;;5008534;28;20037;-88
2022/04/06 04:19:32;;;;;;;1999.90;999.90;;;12.40;63.90;;;;;;5027178;28;20398;-87
2022/04/06 04:21:59;;;;;;;1999.90;999.90;;;12.30;64.00;;;;;;5011039;28;20102;-88
2022/04/06 04:24:25;;;;;;;1999.90;999.90;;;12.30;64.00;;;;;;5025119;28;20034;-89
2022/04/06 04:26:51;;;;;;;1999.90;999.90;;;12.30;64.10;;;;;;5008659;28;20042;-87
2022/04/06 04:29:17;;;;;;;1999.90;999.90;;;12.30;64.30;;;;;;5027901;28;20429;-86
2022/04/06 04:31:45;;;;;;;1999.90;999.90;;;12.30;64.30;;;;;;5027730;28;20033;-87
2022/04/06 04:34:11;;;;;;;1999.90;999.90;;;12.30;64.40;;;;;;5025031;28;20471;-89
2022/04/06 04:36:37;;;;;;;1999.90;999.90;;;12.30;64.40;;;;;;5026701;28;20041;-88
2022/04/06 04:39:04;;;;;;;1999.90;999.90;;;12.30;64.60;;;;;;5024698;28;20037;-86
2022/04/06 04:41:30;;;;;;;1999.90;999.90;;;12.30;64.60;;;;;;5013722;28;20049;-87
2022/04/06 04:43:56;;;;;;;1999.90;999.90;;;12.30;64.70;;;;;;4991401;28;20529;-88
2022/04/06 04:46:22;;;;;;;1999.90;999.90;;;12.30;64.70;;;;;;4994440;28;20053;-87
2022/04/06 04:48:49;;;;;;;1999.90;999.90;;;12.30;64.80;;;;;;5011729;28;20041;-87
2022/04/06 04:51:15;;;;;;;1999.90;999.90;;;12.30;64.90;;;;;;5012927;28;20471;-86
2022/04/06 04:53:44;;;;;;;1999.90;999.90;;;12.30;64.90;;;;;;5013875;28;20037;-87
2022/04/06 04:56:10;;;;;;;1999.90;999.90;;;12.30;64.90;;;;;;5013255;28;20486;-86
2022/04/06 04:58:36;;;;;;;1999.90;999.90;;;12.30;64.90;;;;;;5013160;28;20049;-87
2022/04/06 05:01:02;;;;;;;1999.90;999.90;;;12.30;65.00;;;;;;5012080;28;20047;-86
2022/04/06 05:03:28;;;;;;;1999.90;999.90;;;12.30;65.10;;;;;;5013852;28;20483;-86
2022/04/06 05:05:56;;;;;;;1999.90;999.90;;;12.30;65.10;;;;;;5012928;28;20030;-86
2022/04/06 05:08:23;;;;;;;1999.90;999.90;;;12.30;65.20;;;;;;5012351;28;20038;-86
2022/04/06 05:10:49;;;;;;;1999.90;999.90;;;12.30;65.30;;;;;;5012636;28;20030;-87
2022/04/06 05:13:17;;;;;;;1999.90;999.90;;;12.20;65.30;;;;;;5013430;28;20049;-85
2022/04/06 05:15:44;;;;;;;1999.90;999.90;;;12.30;65.40;;;;;;5011508;28;20026;-86
2022/04/06 05:18:10;;;;;;;1999.90;999.90;;;12.20;65.40;;;;;;5012453;28;20064;-86
2022/04/06 05:20:36;;;;;;;1999.90;999.90;;;12.20;66.30;;;;;;5012447;28;20052;-86
2022/04/06 05:23:02;;;;;;;1999.90;999.90;;;12.20;65.60;;;;;;5012308;28;20390;-86
2022/04/06 05:25:29;;;;;;;1999.90;999.90;;;12.20;65.60;;;;;;5013878;28;20038;-86
2022/04/06 05:27:55;;;;;;;1999.90;999.90;;;12.20;65.70;;;;;;5012484;28;20030;-87
2022/04/06 05:30:25;;;;;;;1999.90;999.90;;;12.20;65.70;;;;;;5011763;28;20049;-86
2022/04/06 05:32:53;;;;;;;1999.90;999.90;;;12.10;65.70;;;;;;5012050;28;20034;-86
2022/04/06 05:35:19;;;;;;;1999.90;999.90;;;12.10;65.80;;;;;;4995449;28;20487;-85
2022/04/06 05:37:46;;;;;;;1999.90;999.90;;;12.10;65.80;;;;;;5012095;28;20049;-86
2022/04/06 05:40:13;;;;;;;1999.90;999.90;;;12.10;65.80;;;;;;5012658;28;20046;-86
2022/04/06 05:42:40;;;;;;;1999.90;999.90;;;12.10;65.90;;;;;;5011861;28;20044;-86
2022/04/06 05:45:06;;;;;;;1999.90;999.90;;;12.10;66.00;;;;;;5010486;28;20033;-86
2022/04/06 05:47:34;;;;;;;1999.90;999.90;;;12.10;66.00;;;;;;4995499;28;20042;-86
2022/04/06 05:50:01;;;;;;;1999.90;999.90;;;12.10;66.00;;;;;;4996655;28;20045;-86
2022/04/06 05:52:27;;;;;;;1999.90;999.90;;;12.10;66.00;;;;;;4990874;28;20037;-86
2022/04/06 05:54:53;;;;;;;1999.90;999.90;;;12.10;66.00;;;;;;5011906;28;20033;-86
2022/04/06 05:57:20;;;;;;;1999.90;999.90;;;12.20;66.20;;;;;;5012195;28;20041;-87
2022/04/06 05:59:46;;;;;;;1999.90;999.90;;;12.10;66.10;;;;;;5011886;28;20386;-87
2022/04/06 06:02:12;;;;;;;1999.90;999.90;;;12.10;66.20;;;;;;5012201;28;20034;-86
2022/04/06 06:04:38;;;;;;;1999.90;999.90;;;12.10;66.20;;;;;;5011795;28;20036;-90
2022/04/06 06:07:05;;;;;;;1999.90;999.90;;;12.10;66.30;;;;;;5010510;28;20022;-84
2022/04/06 06:09:31;;;;;;;1999.90;999.90;;;12.10;66.40;;;;;;4992787;28;20041;-85
2022/04/06 06:11:58;;;;;;;1999.90;999.90;;;12.10;66.40;;;;;;4994007;28;20041;-82
2022/04/06 06:14:24;;;;;;;1999.90;999.90;;;12.10;66.40;;;;;;5009063;28;20502;-80
2022/04/06 06:16:50;;;;;;;1999.90;999.90;;;12.10;66.50;;;;;;5009599;28;20049;-80
2022/04/06 06:19:17;;;;;;;1999.90;999.90;;;12.10;66.50;;;;;;5010972;28;20054;-80
2022/04/06 06:21:43;;;;;;;1999.90;999.90;;;12.10;66.60;;;;;;5005479;28;20474;-81
2022/04/06 06:24:09;;;;;;;1999.90;999.90;;;12.10;66.50;;;;;;5008641;28;20037;-82
2022/04/06 06:26:36;;;;;;;1999.90;999.90;;;12.10;66.50;;;;;;5008946;28;20030;-81
2022/04/06 06:29:03;;;;;;;1999.90;999.90;;;12.10;66.60;;;;;;5009442;28;20381;-84
2022/04/06 06:31:29;;;;;;;1999.90;999.90;;;12.10;66.60;;;;;;5011778;28;20391;-81
2022/04/06 06:33:57;;;;;;;1999.90;999.90;;;12.10;66.60;;;;;;4989884;28;20050;-80
2022/04/06 06:36:23;;;;;;;1999.90;999.90;;;12.10;66.70;;;;;;5010363;28;20105;-82
2022/04/06 06:38:52;;;;;;;1999.90;999.90;;;12.10;66.70;;;;;;4987374;28;20031;-79
2022/04/06 06:41:19;;;;;;;1999.90;999.90;;;12.10;66.70;;;;;;5008373;28;20030;-82
2022/04/06 06:43:48;;;;;;;1999.90;999.90;;;12.10;66.80;;;;;;4974350;28;20049;-89
2022/04/06 06:46:18;;;;;;;1999.90;999.90;;;12.10;66.90;;;;;;5001226;28;20042;-87
2022/04/06 06:48:45;;;;;;;1999.90;999.90;;;12.10;66.90;;;;;;4989510;28;20038;-84
2022/04/06 06:51:12;;;;;;;1999.90;999.90;;;12.10;66.90;;;;;;5034179;28;20475;-89
2022/04/06 06:53:38;;;;;;;1999.90;999.90;;;12.10;66.90;;;;;;4974811;28;20368;-85
2022/04/06 06:56:04;;;;;;;1999.90;999.90;;;12.20;67.80;;;;;;5006199;28;20026;-82
2022/04/06 06:58:30;;;;;;;1999.90;999.90;;;12.10;66.90;;;;;;5009751;28;20048;-81
2022/04/06 07:00:56;;;;;;;1999.90;999.90;;;12.20;67.10;;;;;;5007884;28;20165;-83
2022/04/06 07:03:22;;;;;;;1999.90;999.90;;;12.10;67.00;;;;;;4973209;28;20042;-80
2022/04/06 07:05:48;;;;;;;1999.90;999.90;;;12.20;67.10;;;;;;4983750;28;20088;-81
2022/04/06 07:08:15;;;;;;;1999.90;999.90;;;12.20;67.20;;;;;;5005326;28;20383;-82
2022/04/06 07:10:45;;;;;;;1999.90;999.90;;;12.20;67.20;;;;;;5008995;28;20034;-82
2022/04/06 07:13:16;;;;;;;1999.90;999.90;;;12.30;67.20;;;;;;5007886;28;20033;-83
2022/04/06 07:15:45;;;;;;;;;;;12.30;67.20;;;;;;5006224;28;20038;-83
2022/04/06 07:18:14;;;;;;;1999.90;999.90;;;12.30;67.10;;;;;;5006539;28;19909;-83
2022/04/06 07:20:41;;;;;;;1999.90;999.90;;;12.30;66.90;;;;;;5002818;28;20395;-84
2022/04/06 07:23:07;;;;;;;1999.90;999.90;;;12.30;67.00;;;;;;5005872;28;20065;-84
2022/04/06 07:25:33;;;;;;;1999.90;999.90;;;12.40;67.10;;;;;;5010157;28;20494;-83
2022/04/06 07:28:54;;;;;;;1999.90;999.90;;;12.30;67.10;;;;;;4989427;28;20044;-92
2022/04/06 07:31:20;;;;;;;1999.90;999.90;;;12.40;67.30;;;;;;4989438;28;20553;-87
2022/04/06 07:33:47;;;;;;;1999.90;999.90;;;12.30;67.20;;;;;;4987881;28;20038;-81
2022/04/06 07:36:17;;;;;;;1999.90;999.90;;;12.40;67.30;;;;;;4972587;28;20472;-80
2022/04/06 07:38:43;;;;;;;1999.90;999.90;;;12.40;67.30;;;;;;4988477;28;20069;-80
2022/04/06 07:41:09;;;;;;;1999.90;999.90;;;12.40;67.30;;;;;;4985877;28;20301;-84
2022/04/06 07:43:36;;;;;;;1999.90;999.90;;;12.40;67.30;;;;;;4957189;28;20042;-81
2022/04/06 07:46:02;;;;;;;1999.90;999.90;;;12.40;67.30;;;;;;4988056;28;20431;-82
2022/04/06 07:48:30;;;;;;;1999.90;999.90;;;12.40;67.40;;;;;;5005222;28;20034;-89
2022/04/06 07:50:56;;;;;;;1999.90;999.90;;;12.40;67.40;;;;;;4986618;28;20030;-87
2022/04/06 07:53:22;;;;;;;1999.90;999.90;;;12.40;67.40;;;;;;4986859;28;20496;-93
2022/04/06 07:55:49;;;;;;;1999.90;999.90;;;12.50;67.50;;;;;;4972647;28;20035;-89
2022/04/06 07:58:18;;;;;;;1999.90;999.90;;;12.50;67.50;;;;;;4988054;28;20034;-89
2022/04/06 08:00:45;;;;;;;1999.90;999.90;;;12.50;67.50;;;;;;4988243;28;20045;-91
2022/04/06 08:03:11;;;;;;;1999.90;999.90;;;12.50;67.60;;;;;;4987735;28;20034;-91
2022/04/06 08:05:37;;;;;;;1999.90;999.90;;;12.50;67.60;;;;;;4984501;28;20057;-83
2022/04/06 08:08:04;;;;;;;1999.90;999.90;;;12.50;67.60;;;;;;4983607;28;20027;-87
2022/04/06 08:10:30;;;;;;;1999.90;999.90;;;12.50;67.60;;;;;;4985429;28;20476;-82
2022/04/06 08:12:56;;;;;;;1999.90;999.90;;;12.60;67.60;;;;;;4980766;28;20526;-88
2022/04/06 08:15:22;;;;;;;1999.90;999.90;;;12.60;67.60;;;;;;4988827;28;20046;-91
2022/04/06 08:17:49;;;;;;;1999.90;999.90;;;12.60;67.60;;;;;;4974057;28;20064;-92
2022/04/06 08:20:16;;;;;;;1999.90;999.90;;;12.60;67.60;;;;;;4991952;28;20050;-92
2022/04/06 08:22:43;;;;;;;1999.90;999.90;;;12.70;67.60;;;;;;4990390;28;20042;-88
2022/04/06 08:25:09;;;;;;;1999.90;999.90;;;12.70;67.50;;;;;;4988328;28;20041;-90
2022/04/06 08:27:46;;;;;;;1999.90;999.90;;;12.70;67.50;;;;;;4990467;28;20023;-90
2022/04/06 08:30:12;;;;;;;1999.90;999.90;;;12.80;67.50;;;;;;5003960;28;20367;-89
2022/04/06 08:32:39;;;;;;;1999.90;999.90;;;12.80;67.50;;;;;;5008445;28;20022;-92
2022/04/06 08:35:05;;;;;;;1999.90;999.90;;;12.80;67.40;;;;;;5010585;28;20041;-93
2022/04/06 08:37:35;;;;;;;1999.90;999.90;;;12.80;67.50;;;;;;5011823;28;20082;-92
2022/04/06 08:40:01;;;;;;;1999.90;999.90;;;12.80;67.50;;;;;;5011839;28;20042;-88
2022/04/06 08:42:32;;;;;;;1999.90;999.90;;;12.90;67.50;;;;;;5010249;28;20030;-82
2022/04/06 08:45:02;;;;;;;1999.90;999.90;;;12.90;67.50;;;;;;5007345;28;20048;-84
2022/04/06 08:47:34;;;;;;;1999.90;999.90;;;12.90;67.50;;;;;;4975710;28;20042;-85
2022/04/06 08:50:03;;;;;;;1999.90;999.90;;;12.90;67.30;;;;;;5007939;28;20048;-85
2022/04/06 08:52:34;;;;;;;1999.90;999.90;;;13.00;67.30;;;;;;4979637;28;20034;-84
2022/04/06 08:55:00;;;;;;;1999.90;999.90;;;13.10;67.20;;;;;;4961958;28;20049;-84
2022/04/06 08:57:27;;;;;;;1999.90;999.90;;;13.20;67.10;;;;;;4993522;28;20033;-84
2022/04/06 08:59:54;;;;;;;1999.90;999.90;;;13.20;66.90;;;;;;5009289;28;20515;-84
2022/04/06 09:02:20;;;;;;;1999.90;999.90;;;13.30;66.90;;;;;;5009929;28;20029;-84
2022/04/06 09:04:54;;;;;;;1999.90;999.90;;;13.40;66.90;;;;;;4995328;28;20042;-84
2022/04/06 09:07:21;;;;;;;1999.90;999.90;;;13.40;66.70;;;;;;5008647;28;20403;-84
2022/04/06 09:09:51;;;;;;;1999.90;999.90;;;13.50;66.70;;;;;;5011303;28;20034;-84
2022/04/06 09:12:24;;;;;;;1999.90;999.90;;;13.50;66.70;;;;;;5007902;28;20038;-84
2022/04/06 09:15:10;;;;;;;1999.90;999.90;;;13.50;66.60;;;;;;4992783;28;20446;-84
2022/04/06 09:17:46;;;;;;;1999.90;999.90;;;13.50;66.50;;;;;;5006949;28;20045;-84
2022/04/06 09:20:13;;;;;;;1999.90;999.90;;;13.60;66.50;;;;;;5009165;28;20041;-84
2022/04/06 09:22:39;;;;;;;1999.90;999.90;;;13.60;66.30;;;;;;5011852;28;20052;-84
2022/04/06 09:25:06;;;;;;;1999.90;999.90;;;13.70;67.10;;;;;;5010502;28;20028;-84
2022/04/06 09:27:32;;;;;;;1999.90;999.90;;;13.80;66.20;;;;;;4988620;28;20031;-85
2022/04/06 09:30:02;;;;;;;1999.90;999.90;;;13.80;66.10;;;;;;5015824;28;20150;-84
2022/04/06 09:32:28;;;;;;;1999.90;999.90;;;13.90;65.90;;;;;;4990259;28;20034;-87
2022/04/06 09:34:54;;;;;;;1999.90;999.90;;;13.90;65.90;;;;;;4993508;28;20019;-85
2022/04/06 09:37:24;;;;;;;1999.90;999.90;;;14.00;65.70;;;;;;5009840;28;20056;-89
2022/04/06 09:39:51;;;;;;;1999.90;999.90;;;14.00;65.60;;;;;;5010773;28;20398;-87
2022/04/06 09:42:22;;;;;;;1999.90;999.90;;;14.00;65.50;;;;;;4992355;28;20053;-85
2022/04/06 09:47:42;;;;;;;1999.90;999.90;;;14.10;65.40;;;;;;5008887;28;20037;-85
2022/04/06 09:50:26;;;;;;;1999.90;999.90;;;14.20;65.30;;;;;;5007884;28;20026;-81
2022/04/06 09:52:53;;;;;;;1999.90;999.90;;;14.30;65.20;;;;;;5008538;28;20042;-80
2022/04/06 09:55:21;;;;;;;1999.90;999.90;;;14.40;65.00;;;;;;5011953;28;20051;-79
2022/04/06 09:57:51;;;;;;;1999.90;999.90;;;14.40;64.80;;;;;;5010099;28;20026;-78
2022/04/06 10:00:22;;;;;;;1999.90;999.90;;;14.60;64.70;;;;;;5009633;28;20383;-79
2022/04/06 10:03:04;;;;;;;1999.90;999.90;;;14.70;64.40;;;;;;4986983;28;20414;-80
2022/04/06 10:05:31;;;;;;;1999.90;999.90;;;14.70;65.10;;;;;;5008138;28;20025;-83
2022/04/06 10:08:01;;;;;;;1999.90;999.90;;;14.70;64.10;;;;;;5009904;28;20029;-86
2022/04/06 10:10:27;;;;;;;1999.90;999.90;;;14.70;64.20;;;;;;5012292;28;20042;-92
2022/04/06 10:12:53;;;;;;;1999.90;999.90;;;14.60;64.30;;;;;;5009678;28;20030;-84
2022/04/06 10:15:19;;;;;;;1999.90;999.90;;;14.50;64.50;;;;;;4991746;28;20037;-87
2022/04/06 10:17:46;;;;;;;1999.90;999.90;;;14.40;64.70;;;;;;4995247;28;20479;-85
2022/04/06 10:20:29;;;;;;;1999.90;999.90;;;14.30;64.80;;;;;;5011035;28;20049;-89
2022/04/06 10:23:12;;;;;;;1999.90;999.90;;;14.20;64.90;;;;;;4994857;28;20042;-87
2022/04/06 10:26:09;;;;;;;1999.90;999.90;;;14.10;64.90;;;;;;4992422;28;20053;-87
2022/04/06 10:28:35;;;;;;;1999.90;999.90;;;14.10;65.00;;;;;;5009830;28;20033;-86
2022/04/06 10:31:15;;;;;;;1999.90;999.90;;;14.00;65.00;;;;;;5008991;28;20041;-84
2022/04/06 10:33:41;;;;;;;1999.90;999.90;;;13.90;65.10;;;;;;5006668;28;20042;-86
2022/04/06 10:36:17;;;;;;;1999.90;999.90;;;13.80;65.10;;;;;;5008918;28;20390;-82
2022/04/06 10:39:09;;;;;;;1999.90;999.90;;;13.80;65.20;;;;;;5007679;28;20047;-82
2022/04/06 10:41:41;;;;;;;1999.90;999.90;;;13.90;65.20;;;;;;5008728;28;20040;-81
2022/04/06 10:44:08;;;;;;;1999.90;999.90;;;13.90;65.00;;;;;;4992587;28;20421;-81
2022/04/06 10:46:38;;;;;;;1999.90;999.90;;;14.00;64.90;;;;;;5009894;28;20042;-82
2022/04/06 10:49:09;;;;;;;1999.90;999.90;;;14.10;64.70;;;;;;4991584;28;20054;-86
2022/04/06 10:51:37;;;;;;;1999.90;999.90;;;14.30;64.50;;;;;;5008705;28;20026;-84
2022/04/06 10:54:13;;;;;;;1999.90;999.90;;;14.50;64.10;;;;;;5023469;28;20022;-85
2022/04/06 10:56:54;;;;;;;1999.90;999.90;;;14.70;63.70;;;;;;5002219;28;20494;-83
2022/04/06 10:59:20;;;;;;;1999.90;999.90;;;14.90;63.40;;;;;;5010337;28;20030;-84
2022/04/06 11:01:48;;;;;;;1999.90;999.90;;;14.90;63.20;;;;;;4990637;28;20072;-84
2022/04/06 11:04:20;;;;;;;1999.90;999.90;;;14.90;63.10;;;;;;4994548;28;20038;-83
2022/04/06 11:06:49;;;;;;;1999.90;999.90;;;14.90;64.00;;;;;;5006685;28;20398;-83
2022/04/06 11:12:33;;;;;;;1999.90;999.90;;;14.90;63.30;;;;;;4932777;29;20043;-85
2022/04/06 11:14:59;;;;;;;1999.90;999.90;;;14.90;63.20;;;;;;4917721;28;20047;-84
2022/04/06 11:17:32;;;;;;;1999.90;999.90;;;14.90;63.20;;;;;;4934384;29;20559;-84
2022/04/06 11:19:59;;;;;;;1999.90;999.90;;;14.90;63.30;;;;;;4919006;29;20043;-87
2022/04/06 11:22:25;;;;;;;1999.90;999.90;;;14.80;64.00;;;;;;4935916;29;20051;-87
2022/04/06 11:24:51;;;;;;;1999.90;999.90;;;14.70;63.50;;;;;;4902791;29;20055;-86
2022/04/06 11:27:30;;;;;;;1999.90;999.90;;;14.80;63.60;;;;;;4903674;29;20047;-84
2022/04/06 11:30:00;;;;;;;1999.90;999.90;;;14.90;63.50;;;;;;4947983;28;20453;-83
2022/04/06 11:32:26;;;;;;;1999.90;999.90;;;15.00;63.30;;;;;;4922247;29;20122;-84
2022/04/06 11:34:57;;;;;;;1999.90;999.90;;;15.10;63.10;;;;;;4935266;29;20050;-85
2022/04/06 11:37:23;;;;;;;;;;;15.30;62.90;;;;;;4920710;29;20469;-84
2022/04/06 11:39:49;;;;;;;1999.90;999.90;;;15.40;62.50;;;;;;4933309;29;19914;-85
2022/04/06 11:42:16;;;;;;;1999.90;999.90;;;15.60;62.20;;;;;;4950235;29;20058;-85
2022/04/06 11:44:43;;;;;;;1999.90;999.90;;;15.70;62.00;;;;;;4930459;29;20048;-86
2022/04/06 11:47:09;;;;;;;1999.90;999.90;;;15.80;61.80;;;;;;4915986;28;20045;-85
2022/04/06 11:49:37;;;;;;;1999.90;999.90;;;15.80;61.80;;;;;;5011316;28;20386;-86
2022/04/06 11:52:05;;;;;;;1999.90;999.90;;;15.80;61.70;;;;;;5012979;28;20038;-86
2022/04/06 11:54:31;;;;;;;1999.90;999.90;;;15.80;61.80;;;;;;5014011;28;20041;-85
2022/04/06 11:56:57;;;;;;;1999.90;999.90;;;15.70;61.80;;;;;;5014956;28;20033;-85
2022/04/06 11:59:24;;;;;;;1999.90;999.90;;;15.70;62.10;;;;;;5013045;28;20390;-85
2022/04/06 12:01:50;;;;;;;1999.90;999.90;;;15.60;62.20;;;;;;5012902;28;20050;-86
2022/04/06 12:04:24;;;;;;;1999.90;999.90;;;15.50;62.20;;;;;;5014598;28;20042;-86
2022/04/06 12:06:51;;;;;;;1999.90;999.90;;;15.40;62.40;;;;;;5013184;28;20049;-85
2022/04/06 12:09:17;;;;;;;1999.90;999.90;;;15.30;62.40;;;;;;5012842;28;20038;-85
2022/04/06 12:11:48;;;;;;;1999.90;999.90;;;15.20;62.60;;;;;;5011761;28;20030;-85
2022/04/06 12:14:14;;;;;;;1999.90;999.90;;;15.10;62.90;;;;;;4995424;28;20407;-86
2022/04/06 12:16:41;;;;;;;1999.90;999.90;;;14.90;63.00;;;;;;5013590;28;20269;-85
2022/04/06 12:19:13;;;;;;;1999.90;999.90;;;14.80;63.30;;;;;;4995315;28;20053;-85
2022/04/06 12:21:43;;;;;;;1999.90;999.90;;;14.80;63.40;;;;;;5013238;28;20045;-85
2022/04/06 12:24:11;;;;;;;1999.90;999.90;;;15.00;63.30;;;;;;5012786;28;20133;-86
2022/04/06 12:26:55;;;;;;;1999.90;999.90;;;15.30;63.00;;;;;;5013709;28;20034;-86
2022/04/06 12:29:21;;;;;;;1999.90;999.90;;;15.60;62.40;;;;;;5013320;28;20385;-86
2022/04/06 12:31:47;;;;;;;1999.90;999.90;;;15.80;61.80;;;;;;4995901;28;20041;-85
2022/04/06 12:34:29;;;;;;;1999.90;999.90;;;16.00;61.50;;;;;;5014024;28;20022;-86
2022/04/06 12:36:56;;;;;;;1999.90;999.90;;;16.00;61.30;;;;;;5013127;28;20026;-86
2022/04/06 12:39:22;;;;;;;1999.90;999.90;;;16.00;61.30;;;;;;5012583;28;20041;-86
2022/04/06 12:42:02;;;;;;;1999.90;999.90;;;16.00;61.40;;;;;;4996082;28;20049;-87
2022/04/06 12:44:29;;;;;;;1999.90;999.90;;;16.00;61.40;;;;;;5013096;28;20470;-87
2022/04/06 12:46:56;;;;;;;1999.90;999.90;;;16.10;61.40;;;;;;5012473;28;20494;-87
2022/04/06 12:49:29;;;;;;;1999.90;999.90;;;16.20;61.30;;;;;;5012760;28;20041;-86
2022/04/06 12:52:08;;;;;;;1999.90;999.90;;;16.20;61.10;;;;;;5012122;28;20038;-86
2022/04/06 12:54:35;;;;;;;1999.90;999.90;;;16.30;61.10;;;;;;5014174;28;20030;-87
2022/04/06 12:57:10;;;;;;;1999.90;999.90;;;16.30;61.00;;;;;;5013818;28;20041;-86
2022/04/06 12:59:46;;;;;;;1999.90;999.90;;;16.30;61.00;;;;;;4996101;28;20387;-87
2022/04/06 13:02:19;;;;;;;1999.90;999.90;;;16.40;60.90;;;;;;5011754;28;20065;-86
2022/04/06 13:04:45;;;;;;;1999.90;999.90;;;16.50;60.90;;;;;;5012199;28;20384;-87
2022/04/06 13:07:12;;;;;;;1999.90;999.90;;;16.60;60.60;;;;;;5010541;28;20037;-86
2022/04/06 13:09:51;;;;;;;1999.90;999.90;;;16.60;60.50;;;;;;5012637;28;20033;-86
2022/04/06 13:12:18;;;;;;;1999.90;999.90;;;16.70;60.40;;;;;;5013000;28;20405;-87
2022/04/06 13:14:44;;;;;;;1999.90;999.90;;;16.80;60.30;;;;;;4996482;28;20406;-87
2022/04/06 13:17:10;;;;;;;1999.90;999.90;;;16.90;60.10;;;;;;5011709;28;20098;-86
2022/04/06 13:19:37;;;;;;;1999.90;999.90;;;16.90;60.10;;;;;;5012738;28;20036;-87
2022/04/06 13:22:05;;;;;;;1999.90;999.90;;;16.90;60.10;;;;;;4992443;28;20065;-86
2022/04/06 13:24:32;;;;;;;1999.90;999.90;;;16.80;60.10;;;;;;5012229;28;20033;-87
2022/04/06 13:26:58;;;;;;;1999.90;999.90;;;16.70;60.00;;;;;;4987983;28;20498;-84
2022/04/06 13:29:25;;;;;;;1999.90;999.90;;;16.70;60.20;;;;;;5011538;28;20034;-84
2022/04/06 13:31:51;;;;;;;1999.90;999.90;;;16.70;60.20;;;;;;4995219;28;20034;-84
2022/04/06 13:34:20;;;;;;;1999.90;999.90;;;16.60;60.30;;;;;;5012155;28;20533;-84
2022/04/06 13:36:47;;;;;;;1999.90;999.90;;;16.50;60.30;;;;;;5012009;28;20410;-84
2022/04/06 13:39:13;;;;;;;1999.90;999.90;;;16.40;60.40;;;;;;4995664;28;20041;-85
2022/04/06 13:41:40;;;;;;;1999.90;999.90;;;16.30;60.50;;;;;;5011706;28;20046;-84
2022/04/06 13:44:09;;;;;;;1999.90;999.90;;;16.20;60.60;;;;;;5012704;28;20033;-84
2022/04/06 13:46:36;;;;;;;1999.90;999.90;;;16.20;61.50;;;;;;5011686;28;20498;-85
2022/04/06 13:49:02;;;;;;;1999.90;999.90;;;16.10;60.80;;;;;;5010543;28;20030;-88
2022/04/06 13:51:28;;;;;;;1999.90;999.90;;;16.10;60.80;;;;;;5008426;28;20041;-84
2022/04/06 13:53:54;;;;;;;1999.90;999.90;;;16.00;60.80;;;;;;5011402;28;20678;-86
2022/04/06 13:56:20;;;;;;;1999.90;999.90;;;16.00;60.80;;;;;;5011417;28;20053;-85
2022/04/06 13:58:46;;;;;;;1999.90;999.90;;;16.00;60.80;;;;;;5012249;28;20033;-85
2022/04/06 14:01:12;;;;;;;1999.90;999.90;;;16.00;60.90;;;;;;5012481;28;20108;-83
2022/04/06 14:03:39;;;;;;;1999.90;999.90;;;15.90;60.80;;;;;;5010997;28;20383;-86
2022/04/06 14:06:09;;;;;;;1999.90;999.90;;;15.90;60.80;;;;;;4993766;28;20037;-85
2022/04/06 14:08:35;;;;;;;1999.90;999.90;;;15.90;60.80;;;;;;5024148;28;20095;-87
2022/04/06 14:11:01;;;;;;;1999.90;999.90;;;16.00;60.70;;;;;;5011048;28;20030;-85
2022/04/06 14:13:27;;;;;;;1999.90;999.90;;;16.00;60.50;;;;;;4990552;28;20042;-86
2022/04/06 14:15:54;;;;;;;1999.90;999.90;;;16.10;60.30;;;;;;4994468;28;20046;-85
2022/04/06 14:18:20;;;;;;;1999.90;999.90;;;16.10;60.20;;;;;;5004315;28;20038;-87
2022/04/06 14:20:47;;;;;;;1999.90;999.90;;;16.20;60.20;;;;;;5008444;28;20123;-87
2022/04/06 14:23:13;;;;;;;1999.90;999.90;;;16.10;60.20;;;;;;4997154;28;20048;-86
2022/04/06 14:25:45;;;;;;;1999.90;999.90;;;16.10;60.30;;;;;;4994211;28;20045;-88
2022/04/06 14:28:12;;;;;;;1999.90;999.90;;;16.10;60.30;;;;;;4980378;28;20053;-88
2022/04/06 14:30:38;;;;;;;1999.90;999.90;;;16.30;60.10;;;;;;4993402;28;20050;-84
2022/04/06 14:33:05;;;;;;;1999.90;999.90;;;16.30;59.80;;;;;;5010119;28;20398;-87
2022/04/06 14:35:31;;;;;;;1999.90;999.90;;;16.30;59.80;;;;;;5010701;28;20482;-87
2022/04/06 14:37:57;;;;;;;1999.90;999.90;;;16.20;59.80;;;;;;5010423;28;20041;-88
2022/04/06 14:40:23;;;;;;;1999.90;999.90;;;16.10;59.70;;;;;;4991104;28;20042;-86
2022/04/06 14:42:49;;;;;;;1999.90;999.90;;;16.00;59.90;;;;;;4993277;28;20402;-86
2022/04/06 14:45:16;;;;;;;1999.90;999.90;;;16.00;60.00;;;;;;4993423;28;20034;-85
2022/04/06 14:47:42;;;;;;;1999.90;999.90;;;15.90;60.00;;;;;;5011288;28;20033;-89
2022/04/06 14:50:09;;;;;;;1999.90;999.90;;;15.80;60.10;;;;;;5010895;28;20049;-89
2022/04/06 14:52:35;;;;;;;1999.90;999.90;;;15.80;60.10;;;;;;4994064;28;20029;-85
2022/04/06 14:55:03;;;;;;;1999.90;999.90;;;15.70;60.10;;;;;;5010683;28;20036;-85
2022/04/06 14:57:29;;;;;;;1999.90;999.90;;;15.70;60.10;;;;;;5011762;28;20029;-86
2022/04/06 14:59:55;;;;;;;1999.90;999.90;;;15.70;60.10;;;;;;4993904;28;20045;-84
2022/04/06 15:02:21;;;;;;;1999.90;999.90;;;15.60;60.00;;;;;;5010844;28;20057;-85
2022/04/06 15:04:47;;;;;;;1999.90;999.90;;;15.70;60.00;;;;;;4992947;28;20045;-86
2022/04/06 15:07:17;;;;;;;1999.90;999.90;;;15.70;59.90;;;;;;5010474;28;20033;-86
2022/04/06 15:09:46;;;;;;;1999.90;999.90;;;15.70;59.90;;;;;;5009811;28;20395;-87
2022/04/06 15:12:12;;;;;;;1999.90;999.90;;;15.80;59.80;;;;;;4993897;28;20037;-87
2022/04/06 15:14:39;;;;;;;1999.90;999.90;;;15.80;59.60;;;;;;4994294;28;20509;-85
2022/04/06 15:17:06;;;;;;;1999.90;999.90;;;15.80;59.60;;;;;;5009171;28;20042;-87
2022/04/06 15:19:33;;;;;;;1999.90;999.90;;;15.80;59.60;;;;;;5010360;28;20033;-83
2022/04/06 15:22:00;;;;;;;1999.90;999.90;;;15.90;59.60;;;;;;4993811;28;20053;-84
2022/04/06 15:24:26;;;;;;;1999.90;999.90;;;15.80;59.60;;;;;;5009482;28;20026;-86
2022/04/06 15:26:52;;;;;;;1999.90;999.90;;;15.70;59.50;;;;;;5009961;28;20033;-85
2022/04/06 15:29:18;;;;;;;1999.90;999.90;;;15.70;59.60;;;;;;5010876;28;20046;-86
2022/04/06 15:31:44;;;;;;;1999.90;999.90;;;15.60;59.70;;;;;;4992541;28;20491;-84
2022/04/06 15:37:18;;;;;;;1999.90;999.90;;;15.60;59.70;;;;;;5006009;28;20030;-86
2022/04/06 15:39:41;;;;;;;1999.90;999.90;;;15.70;59.60;;;;;;5010966;28;20402;-86
2022/04/06 15:42:08;;;;;;;1999.90;999.90;;;15.70;59.50;;;;;;5010362;28;20475;-85
2022/04/06 15:44:34;;;;;;;1999.90;999.90;;;15.70;59.40;;;;;;5011485;28;20391;-87